createdAt,value
2019-04-30T00:00:57.331Z,9.61
2019-04-30T00:01:58.970Z,9.49
2019-04-30T00:02:57.156Z,9.53
2019-04-30T00:03:59.361Z,9.50
2019-04-30T00:04:56.976Z,9.53
2019-04-30T00:05:57.505Z,9.47
2019-04-30T00:06:56.862Z,9.50
2019-04-30T00:07:58.414Z,9.67
2019-04-30T00:08:57.733Z,9.60
2019-04-30T00:09:57.652Z,9.64
2019-04-30T00:10:56.497Z,9.53
2019-04-30T00:12:00.996Z,9.64
2019-04-30T00:12:56.391Z,9.63
2019-04-30T00:13:58.790Z,9.58
2019-04-30T00:14:56.180Z,9.61
2019-04-30T00:15:58.788Z,9.64
2019-04-30T00:16:56.026Z,9.68
2019-04-30T00:17:58.498Z,9.58
2019-04-30T00:19:00.479Z,9.53
2019-04-30T00:19:59.798Z,9.53
2019-04-30T00:20:55.702Z,9.61
2019-04-30T00:22:00.156Z,9.68
2019-04-30T00:22:55.639Z,9.63
2019-04-30T00:23:56.075Z,9.58
2019-04-30T00:24:55.719Z,9.67
2019-04-30T00:25:58.324Z,9.67
2019-04-30T00:26:55.315Z,9.56
2019-04-30T00:27:55.971Z,9.65
2019-04-30T00:28:55.401Z,9.65
2019-04-30T00:29:55.800Z,9.64
2019-04-30T00:30:56.226Z,9.70
2019-04-30T00:31:57.681Z,9.58
2019-04-30T00:32:55.667Z,9.67
2019-04-30T00:33:57.823Z,9.65
2019-04-30T00:34:55.656Z,9.71
2019-04-30T00:35:57.857Z,9.71
2019-04-30T00:36:55.998Z,9.68
2019-04-30T00:37:57.570Z,9.67
2019-04-30T00:38:54.842Z,9.70
2019-04-30T00:39:55.569Z,9.68
2019-04-30T00:40:55.767Z,9.68
2019-04-30T00:41:54.654Z,9.70
2019-04-30T00:42:55.949Z,9.67
2019-04-30T00:43:55.194Z,9.72
2019-04-30T00:44:55.278Z,9.68
2019-04-30T00:45:55.167Z,9.70
2019-04-30T00:46:55.784Z,9.71
2019-04-30T00:47:53.555Z,9.67
2019-04-30T00:48:55.543Z,9.72
2019-04-30T00:49:57.518Z,9.72
2019-04-30T00:50:53.316Z,9.74
2019-04-30T00:51:56.708Z,9.70
2019-04-30T00:52:53.159Z,9.78
2019-04-30T00:53:53.079Z,9.70
2019-04-30T00:54:53.000Z,9.78
2019-04-30T00:55:53.002Z,9.80
2019-04-30T00:56:52.919Z,9.78
2019-04-30T00:57:52.761Z,9.71
2019-04-30T00:58:52.714Z,9.67
2019-04-30T00:59:52.723Z,9.79
2019-04-30T01:00:52.521Z,9.80
2019-04-30T01:01:52.463Z,9.78
2019-04-30T01:02:52.365Z,9.68
2019-04-30T01:03:52.340Z,9.70
2019-04-30T01:04:52.203Z,9.68
2019-04-30T01:05:52.123Z,9.71
2019-04-30T01:06:52.155Z,9.72
2019-04-30T01:07:52.030Z,9.64
2019-04-30T01:08:51.903Z,9.68
2019-04-30T01:09:51.870Z,9.67
2019-04-30T01:10:51.728Z,9.71
2019-04-30T01:11:51.649Z,9.68
2019-04-30T01:12:51.570Z,9.68
2019-04-30T01:13:53.958Z,9.70
2019-04-30T01:14:51.410Z,9.68
2019-04-30T01:15:52.564Z,9.72
2019-04-30T01:16:51.252Z,9.80
2019-04-30T01:17:53.713Z,9.75
2019-04-30T01:18:51.095Z,9.79
2019-04-30T01:19:54.459Z,9.83
2019-04-30T01:20:50.935Z,9.80
2019-04-30T01:21:51.027Z,9.78
2019-04-30T01:22:50.783Z,9.70
2019-04-30T01:23:54.558Z,9.83
2019-04-30T01:24:50.639Z,9.88
2019-04-30T01:25:51.478Z,9.80
2019-04-30T01:26:50.572Z,9.83
2019-04-30T01:27:50.390Z,9.80
2019-04-30T01:28:53.673Z,9.82
2019-04-30T01:29:50.222Z,9.83
2019-04-30T01:30:53.933Z,9.83
2019-04-30T01:31:50.062Z,9.82
2019-04-30T01:32:56.438Z,9.78
2019-04-30T01:33:49.989Z,9.79
2019-04-30T01:34:53.647Z,9.79
2019-04-30T01:35:49.745Z,9.80
2019-04-30T01:36:52.147Z,9.78
2019-04-30T01:37:49.605Z,9.82
2019-04-30T01:38:52.372Z,9.85
2019-04-30T01:39:49.439Z,9.80
2019-04-30T01:40:51.161Z,9.83
2019-04-30T01:41:49.270Z,9.83
2019-04-30T01:42:51.629Z,9.85
2019-04-30T01:43:49.114Z,9.82
2019-04-30T01:44:53.556Z,9.82
2019-04-30T01:45:48.948Z,9.83
2019-04-30T01:46:51.712Z,9.85
2019-04-30T01:47:49.609Z,9.78
2019-04-30T01:48:51.903Z,9.89
2019-04-30T01:49:49.537Z,9.79
2019-04-30T01:50:48.887Z,9.85
2019-04-30T01:51:48.729Z,9.92
2019-04-30T01:52:49.348Z,9.92
2019-04-30T01:53:48.521Z,9.85
2019-04-30T01:54:49.009Z,9.92
2019-04-30T01:55:49.444Z,9.92
2019-04-30T01:56:49.820Z,9.96
2019-04-30T01:57:49.130Z,9.90
2019-04-30T01:58:49.466Z,9.92
2019-04-30T01:59:48.644Z,9.90
2019-04-30T02:00:49.296Z,9.92
2019-04-30T02:01:48.709Z,9.92
2019-04-30T02:02:49.486Z,9.98
2019-04-30T02:03:48.719Z,9.93
2019-04-30T02:04:49.207Z,9.93
2019-04-30T02:05:47.448Z,9.89
2019-04-30T02:06:49.189Z,9.93
2019-04-30T02:07:48.661Z,9.92
2019-04-30T02:08:47.155Z,9.90
2019-04-30T02:09:48.820Z,10.01
2019-04-30T02:10:49.128Z,9.93
2019-04-30T02:11:48.696Z,9.97
2019-04-30T02:12:46.806Z,9.92
2019-04-30T02:13:46.781Z,9.89
2019-04-30T02:14:46.687Z,9.90
2019-04-30T02:15:46.566Z,9.86
2019-04-30T02:16:46.597Z,10.01
2019-04-30T02:17:46.502Z,9.88
2019-04-30T02:18:46.329Z,9.92
2019-04-30T02:19:56.393Z,9.92
2019-04-30T02:20:46.182Z,9.92
2019-04-30T02:21:46.090Z,10.00
2019-04-30T02:22:46.128Z,9.92
2019-04-30T02:23:46.039Z,9.92
2019-04-30T02:24:45.856Z,9.89
2019-04-30T02:25:45.841Z,9.96
2019-04-30T02:26:45.705Z,9.93
2019-04-30T02:27:45.613Z,9.92
2019-04-30T02:28:45.657Z,9.92
2019-04-30T02:29:45.563Z,9.89
2019-04-30T02:30:45.379Z,9.92
2019-04-30T02:31:45.370Z,9.92
2019-04-30T02:32:45.273Z,9.96
2019-04-30T02:33:45.143Z,9.89
2019-04-30T02:34:45.086Z,10.01
2019-04-30T02:35:45.100Z,9.89
2019-04-30T02:36:44.904Z,9.89
2019-04-30T02:37:44.900Z,9.89
2019-04-30T02:38:44.811Z,9.93
2019-04-30T02:39:44.666Z,9.93
2019-04-30T02:40:44.616Z,9.96
2019-04-30T02:41:44.623Z,9.93
2019-04-30T02:42:44.427Z,10.03
2019-04-30T02:43:44.430Z,9.93
2019-04-30T02:44:44.353Z,9.98
2019-04-30T02:45:44.188Z,9.98
2019-04-30T02:46:44.144Z,9.90
2019-04-30T02:47:44.153Z,9.93
2019-04-30T02:48:43.953Z,9.90
2019-04-30T02:49:43.959Z,9.96
2019-04-30T02:50:43.862Z,9.92
2019-04-30T02:51:43.718Z,10.03
2019-04-30T02:52:43.681Z,10.00
2019-04-30T02:53:43.590Z,9.92
2019-04-30T02:54:43.476Z,9.97
2019-04-30T02:55:43.490Z,10.00
2019-04-30T02:56:43.416Z,10.04
2019-04-30T02:57:43.239Z,9.88
2019-04-30T02:58:43.203Z,9.97
2019-04-30T02:59:43.114Z,9.93
2019-04-30T03:00:42.998Z,9.88
2019-04-30T03:01:43.017Z,10.03
2019-04-30T03:02:42.925Z,9.92
2019-04-30T03:03:42.812Z,9.90
2019-04-30T03:04:42.735Z,9.97
2019-04-30T03:05:42.641Z,9.98
2019-04-30T03:06:42.527Z,9.93
2019-04-30T03:07:42.451Z,9.93
2019-04-30T03:08:42.453Z,9.88
2019-04-30T03:09:42.290Z,9.89
2019-04-30T03:10:42.257Z,10.06
2019-04-30T03:11:42.138Z,9.90
2019-04-30T03:12:42.050Z,9.97
2019-04-30T03:13:42.888Z,9.90
2019-04-30T03:14:41.982Z,10.07
2019-04-30T03:15:41.806Z,9.96
2019-04-30T03:16:41.739Z,9.96
2019-04-30T03:17:41.706Z,9.96
2019-04-30T03:18:41.572Z,9.92
2019-04-30T03:19:41.615Z,10.06
2019-04-30T03:20:41.514Z,9.97
2019-04-30T03:21:41.331Z,9.88
2019-04-30T03:22:41.321Z,10.04
2019-04-30T03:23:41.224Z,10.03
2019-04-30T03:24:42.837Z,9.98
2019-04-30T03:25:41.032Z,10.01
2019-04-30T03:26:41.057Z,9.96
2019-04-30T03:27:42.556Z,9.89
2019-04-30T03:28:40.853Z,9.92
2019-04-30T03:29:40.860Z,9.98
2019-04-30T03:30:41.857Z,9.93
2019-04-30T03:31:43.943Z,10.00
2019-04-30T03:32:43.015Z,10.06
2019-04-30T03:33:42.388Z,9.93
2019-04-30T03:34:41.998Z,10.01
2019-04-30T03:35:42.240Z,10.10
2019-04-30T03:36:40.582Z,10.00
2019-04-30T03:37:40.093Z,10.06
2019-04-30T03:38:42.719Z,10.13
2019-04-30T03:39:40.220Z,10.03
2019-04-30T03:40:40.566Z,10.06
2019-04-30T03:41:41.214Z,9.96
2019-04-30T03:42:39.797Z,10.00
2019-04-30T03:43:40.176Z,9.86
2019-04-30T03:44:40.272Z,9.90
2019-04-30T03:45:40.177Z,9.97
2019-04-30T03:46:40.243Z,9.93
2019-04-30T03:47:40.346Z,10.06
2019-04-30T03:48:39.664Z,10.03
2019-04-30T03:49:40.273Z,9.93
2019-04-30T03:50:50.420Z,9.96
2019-04-30T03:51:40.286Z,9.90
2019-04-30T03:52:39.446Z,10.01
2019-04-30T03:53:39.695Z,9.97
2019-04-30T03:54:40.814Z,10.10
2019-04-30T03:55:40.026Z,10.10
2019-04-30T03:56:39.615Z,9.92
2019-04-30T03:57:39.849Z,9.97
2019-04-30T03:58:39.558Z,9.92
2019-04-30T03:59:39.732Z,10.00
2019-04-30T04:00:42.184Z,10.04
2019-04-30T04:01:39.914Z,9.97
2019-04-30T04:02:40.483Z,9.96
2019-04-30T04:03:42.084Z,10.03
2019-04-30T04:04:39.673Z,10.01
2019-04-30T04:05:39.878Z,9.93
2019-04-30T04:06:39.489Z,10.04
2019-04-30T04:07:39.480Z,9.96
2019-04-30T04:08:39.085Z,9.93
2019-04-30T04:09:39.960Z,9.93
2019-04-30T04:10:37.458Z,9.96
2019-04-30T04:11:39.546Z,10.00
2019-04-30T04:12:39.393Z,10.03
2019-04-30T04:13:39.918Z,10.00
2019-04-30T04:14:39.410Z,9.96
2019-04-30T04:15:39.696Z,10.01
2019-04-30T04:16:36.967Z,9.98
2019-04-30T04:17:39.477Z,10.10
2019-04-30T04:18:36.807Z,10.04
2019-04-30T04:19:39.193Z,10.07
2019-04-30T04:20:36.649Z,10.11
2019-04-30T04:21:39.154Z,10.08
2019-04-30T04:22:36.496Z,10.10
2019-04-30T04:23:39.642Z,10.01
2019-04-30T04:24:36.331Z,10.04
2019-04-30T04:25:36.261Z,10.00
2019-04-30T04:26:36.166Z,9.89
2019-04-30T04:27:36.137Z,9.93
2019-04-30T04:28:36.014Z,10.03
2019-04-30T04:29:36.049Z,9.92
2019-04-30T04:30:35.852Z,9.98
2019-04-30T04:31:35.858Z,9.89
2019-04-30T04:32:35.698Z,10.01
2019-04-30T04:33:35.666Z,9.93
2019-04-30T04:34:35.546Z,9.96
2019-04-30T04:35:39.163Z,10.03
2019-04-30T04:36:35.379Z,9.98
2019-04-30T04:37:35.494Z,10.00
2019-04-30T04:38:35.221Z,9.97
2019-04-30T04:39:35.197Z,9.89
2019-04-30T04:40:35.062Z,9.97
2019-04-30T04:41:35.109Z,9.96
2019-04-30T04:42:34.901Z,9.93
2019-04-30T04:43:34.842Z,10.03
2019-04-30T04:44:34.744Z,9.86
2019-04-30T04:45:34.831Z,9.88
2019-04-30T04:46:34.585Z,9.97
2019-04-30T04:47:34.635Z,9.89
2019-04-30T04:48:34.422Z,9.89
2019-04-30T04:49:34.355Z,9.89
2019-04-30T04:50:34.456Z,9.97
2019-04-30T04:51:38.761Z,9.98
2019-04-30T04:52:34.262Z,9.97
2019-04-30T04:53:34.028Z,9.88
2019-04-30T04:54:34.073Z,9.90
2019-04-30T04:55:33.869Z,9.98
2019-04-30T04:56:33.798Z,9.93
2019-04-30T04:57:33.712Z,9.98
2019-04-30T04:58:33.692Z,9.89
2019-04-30T04:59:33.555Z,10.01
2019-04-30T05:00:33.603Z,9.92
2019-04-30T05:01:33.415Z,9.93
2019-04-30T05:02:33.409Z,10.04
2019-04-30T05:03:33.234Z,10.00
2019-04-30T05:04:33.321Z,9.97
2019-04-30T05:05:33.079Z,9.88
2019-04-30T05:06:33.031Z,9.98
2019-04-30T05:07:32.914Z,9.96
2019-04-30T05:08:32.844Z,9.93
2019-04-30T05:09:32.758Z,9.89
2019-04-30T05:10:32.748Z,10.00
2019-04-30T05:11:32.599Z,9.97
2019-04-30T05:12:32.560Z,9.88
2019-04-30T05:13:34.652Z,9.88
2019-04-30T05:14:32.469Z,9.93
2019-04-30T05:15:32.280Z,9.92
2019-04-30T05:16:32.277Z,9.93
2019-04-30T05:17:32.223Z,9.96
2019-04-30T05:18:32.193Z,9.96
2019-04-30T05:19:31.966Z,9.97
2019-04-30T05:20:31.914Z,9.88
2019-04-30T05:21:42.014Z,9.92
2019-04-30T05:22:31.726Z,9.97
2019-04-30T05:23:31.812Z,9.96
2019-04-30T05:24:31.563Z,9.89
2019-04-30T05:25:31.625Z,9.96
2019-04-30T05:26:31.406Z,9.96
2019-04-30T05:27:31.324Z,9.90
2019-04-30T05:28:31.447Z,9.98
2019-04-30T05:29:31.171Z,9.97
2019-04-30T05:30:31.089Z,9.90
2019-04-30T05:31:31.154Z,9.92
2019-04-30T05:32:30.937Z,9.89
2019-04-30T05:33:30.852Z,9.92
2019-04-30T05:34:30.969Z,9.89
2019-04-30T05:35:30.981Z,9.92
2019-04-30T05:36:30.612Z,9.92
2019-04-30T05:37:30.683Z,9.93
2019-04-30T05:38:31.304Z,9.89
2019-04-30T05:39:30.376Z,9.86
2019-04-30T05:40:30.405Z,9.83
2019-04-30T05:41:30.221Z,9.86
2019-04-30T05:42:30.137Z,9.96
2019-04-30T05:43:30.214Z,10.00
2019-04-30T05:44:29.979Z,9.89
2019-04-30T05:45:29.900Z,9.93
2019-04-30T05:46:30.057Z,10.03
2019-04-30T05:47:29.743Z,9.96
2019-04-30T05:48:29.680Z,9.89
2019-04-30T05:49:29.750Z,9.93
2019-04-30T05:50:29.716Z,9.98
2019-04-30T05:51:29.429Z,10.00
2019-04-30T05:52:29.632Z,9.96
2019-04-30T05:53:29.264Z,10.06
2019-04-30T05:54:29.302Z,9.92
2019-04-30T05:55:29.507Z,10.00
2019-04-30T05:56:30.474Z,9.96
2019-04-30T05:57:29.468Z,9.86
2019-04-30T05:58:29.969Z,9.97
2019-04-30T05:59:29.041Z,9.98
2019-04-30T06:00:30.501Z,9.98
2019-04-30T06:01:29.555Z,9.89
2019-04-30T06:02:33.602Z,9.96
2019-04-30T06:03:32.844Z,9.97
2019-04-30T06:04:29.435Z,9.93
2019-04-30T06:05:28.657Z,9.97
2019-04-30T06:06:29.056Z,9.98
2019-04-30T06:07:29.911Z,9.96
2019-04-30T06:08:29.202Z,9.96
2019-04-30T06:09:33.214Z,9.89
2019-04-30T06:10:29.416Z,9.92
2019-04-30T06:11:29.248Z,9.92
2019-04-30T06:12:28.425Z,9.92
2019-04-30T06:13:28.744Z,10.01
2019-04-30T06:14:28.654Z,10.00
2019-04-30T06:15:29.075Z,10.07
2019-04-30T06:16:27.573Z,10.08
2019-04-30T06:17:29.245Z,10.07
2019-04-30T06:18:28.700Z,10.08
2019-04-30T06:19:28.863Z,10.11
2019-04-30T06:20:28.806Z,9.98
2019-04-30T06:21:27.045Z,10.06
2019-04-30T06:22:28.780Z,9.89
2019-04-30T06:23:26.882Z,9.98
2019-04-30T06:24:28.177Z,9.93
2019-04-30T06:25:32.076Z,9.90
2019-04-30T06:26:26.645Z,10.00
2019-04-30T06:27:26.563Z,10.03
2019-04-30T06:28:35.542Z,10.15
2019-04-30T06:29:26.406Z,10.16
2019-04-30T06:30:26.546Z,10.04
2019-04-30T06:31:34.670Z,10.08
2019-04-30T06:32:26.168Z,10.25
2019-04-30T06:33:26.093Z,10.29
2019-04-30T06:34:26.161Z,10.31
2019-04-30T06:35:25.931Z,10.31
2019-04-30T06:36:25.852Z,10.29
2019-04-30T06:37:25.976Z,10.40
2019-04-30T06:38:25.693Z,10.51
2019-04-30T06:39:25.615Z,10.41
2019-04-30T06:40:25.535Z,10.43
2019-04-30T06:41:25.601Z,10.44
2019-04-30T06:42:25.380Z,10.36
2019-04-30T06:43:25.505Z,10.33
2019-04-30T06:44:34.972Z,10.33
2019-04-30T06:45:25.139Z,10.40
2019-04-30T06:46:25.060Z,10.43
2019-04-30T06:47:32.822Z,10.43
2019-04-30T06:48:24.898Z,10.56
2019-04-30T06:49:25.037Z,10.60
2019-04-30T06:50:24.752Z,10.58
2019-04-30T06:51:24.680Z,10.58
2019-04-30T06:52:24.586Z,10.58
2019-04-30T06:53:24.660Z,10.71
2019-04-30T06:54:24.566Z,10.63
2019-04-30T06:55:24.353Z,10.80
2019-04-30T06:56:24.473Z,10.84
2019-04-30T06:57:24.377Z,10.81
2019-04-30T06:58:24.111Z,10.91
2019-04-30T06:59:24.188Z,10.91
2019-04-30T07:00:32.962Z,10.99
2019-04-30T07:01:23.874Z,10.98
2019-04-30T07:02:23.997Z,11.00
2019-04-30T07:03:23.905Z,11.14
2019-04-30T07:04:23.640Z,11.14
2019-04-30T07:05:23.713Z,11.11
2019-04-30T07:06:29.790Z,11.21
2019-04-30T07:07:30.778Z,11.32
2019-04-30T07:08:35.770Z,11.31
2019-04-30T07:09:26.881Z,11.35
2019-04-30T07:10:23.336Z,11.35
2019-04-30T07:11:23.084Z,11.34
2019-04-30T07:12:27.798Z,11.34
2019-04-30T07:13:22.926Z,11.34
2019-04-30T07:14:23.057Z,11.31
2019-04-30T07:15:22.768Z,11.43
2019-04-30T07:16:22.869Z,11.41
2019-04-30T07:17:22.611Z,11.43
2019-04-30T07:18:22.528Z,11.49
2019-04-30T07:19:31.778Z,11.61
2019-04-30T07:20:22.373Z,11.60
2019-04-30T07:21:22.297Z,11.56
2019-04-30T07:22:36.608Z,11.65
2019-04-30T07:23:22.142Z,11.71
2019-04-30T07:24:22.060Z,11.71
2019-04-30T07:25:22.027Z,11.65
2019-04-30T07:26:24.445Z,11.61
2019-04-30T07:27:24.189Z,11.50
2019-04-30T07:28:21.747Z,11.47
2019-04-30T07:29:21.714Z,11.42
2019-04-30T07:30:21.633Z,11.36
2019-04-30T07:31:21.539Z,11.24
2019-04-30T07:32:21.545Z,11.31
2019-04-30T07:33:21.451Z,11.32
2019-04-30T07:34:21.310Z,11.23
2019-04-30T07:35:21.254Z,11.28
2019-04-30T07:36:22.202Z,11.23
2019-04-30T07:37:24.561Z,11.13
2019-04-30T07:38:21.073Z,11.17
2019-04-30T07:39:23.392Z,11.10
2019-04-30T07:40:20.802Z,11.16
2019-04-30T07:41:20.789Z,11.17
2019-04-30T07:42:20.694Z,11.14
2019-04-30T07:43:20.570Z,11.18
2019-04-30T07:44:32.609Z,11.16
2019-04-30T07:45:25.398Z,11.14
2019-04-30T07:46:20.330Z,11.08
2019-04-30T07:47:20.317Z,11.06
2019-04-30T07:48:25.880Z,11.10
2019-04-30T07:49:20.630Z,11.02
2019-04-30T07:50:21.247Z,11.00
2019-04-30T07:51:21.489Z,11.05
2019-04-30T07:52:21.532Z,10.93
2019-04-30T07:53:19.827Z,10.92
2019-04-30T07:54:19.756Z,10.98
2019-04-30T07:55:19.867Z,11.05
2019-04-30T07:56:27.831Z,10.95
2019-04-30T07:57:19.547Z,10.88
2019-04-30T07:58:20.514Z,10.88
2019-04-30T07:59:20.133Z,10.83
2019-04-30T08:00:19.522Z,10.84
2019-04-30T08:01:19.724Z,10.87
2019-04-30T08:02:20.783Z,10.80
2019-04-30T08:03:20.531Z,10.91
2019-04-30T08:04:18.968Z,10.88
2019-04-30T08:05:19.848Z,10.84
2019-04-30T08:06:19.594Z,10.93
2019-04-30T08:07:19.944Z,10.91
2019-04-30T08:08:24.543Z,10.87
2019-04-30T08:09:19.586Z,10.91
2019-04-30T08:10:18.891Z,11.05
2019-04-30T08:11:25.629Z,10.99
2019-04-30T08:12:26.127Z,10.96
2019-04-30T08:13:21.236Z,11.02
2019-04-30T08:14:18.790Z,11.05
2019-04-30T08:15:19.776Z,11.03
2019-04-30T08:16:18.674Z,11.00
2019-04-30T08:17:18.856Z,11.02
2019-04-30T08:18:18.499Z,11.13
2019-04-30T08:19:19.129Z,11.18
2019-04-30T08:20:19.583Z,11.14
2019-04-30T08:21:19.006Z,11.17
2019-04-30T08:22:19.438Z,11.20
2019-04-30T08:23:33.531Z,11.13
2019-04-30T08:24:19.264Z,11.24
2019-04-30T08:25:19.075Z,11.28
2019-04-30T08:26:18.742Z,11.26
2019-04-30T08:27:19.150Z,11.32
2019-04-30T08:28:18.707Z,11.31
2019-04-30T08:29:17.030Z,11.28
2019-04-30T08:30:23.746Z,11.41
2019-04-30T08:31:16.790Z,11.32
2019-04-30T08:32:18.942Z,11.38
2019-04-30T08:33:16.631Z,11.38
2019-04-30T08:34:16.648Z,11.56
2019-04-30T08:35:16.471Z,11.61
2019-04-30T08:36:16.393Z,11.54
2019-04-30T08:37:19.632Z,11.61
2019-04-30T08:38:16.369Z,11.69
2019-04-30T08:39:16.160Z,11.72
2019-04-30T08:40:16.178Z,11.74
2019-04-30T08:41:16.007Z,11.75
2019-04-30T08:42:28.250Z,11.79
2019-04-30T08:43:15.842Z,11.98
2019-04-30T08:44:15.912Z,11.95
2019-04-30T08:45:15.685Z,12.06
2019-04-30T08:46:15.707Z,12.33
2019-04-30T08:47:15.540Z,12.52
2019-04-30T08:48:15.449Z,12.51
2019-04-30T08:49:15.710Z,12.70
2019-04-30T08:50:15.504Z,13.03
2019-04-30T08:51:15.387Z,13.04
2019-04-30T08:52:15.206Z,13.06
2019-04-30T08:53:26.644Z,12.96
2019-04-30T08:54:15.061Z,12.74
2019-04-30T08:55:17.162Z,12.74
2019-04-30T08:56:14.823Z,12.69
2019-04-30T08:57:14.746Z,12.67
2019-04-30T08:58:15.266Z,12.63
2019-04-30T08:59:14.671Z,12.55
2019-04-30T09:00:15.140Z,12.59
2019-04-30T09:01:14.586Z,12.55
2019-04-30T09:02:16.528Z,12.55
2019-04-30T09:03:14.275Z,12.56
2019-04-30T09:04:14.199Z,12.53
2019-04-30T09:05:14.198Z,12.46
2019-04-30T09:06:14.043Z,12.49
2019-04-30T09:07:14.118Z,12.52
2019-04-30T09:08:13.887Z,12.52
2019-04-30T09:09:13.810Z,12.51
2019-04-30T09:10:13.731Z,12.42
2019-04-30T09:11:22.473Z,12.53
2019-04-30T09:12:13.579Z,12.71
2019-04-30T09:13:13.646Z,12.84
2019-04-30T09:14:13.421Z,13.00
2019-04-30T09:15:13.454Z,13.09
2019-04-30T09:16:13.264Z,13.33
2019-04-30T09:17:13.262Z,13.33
2019-04-30T09:18:13.117Z,13.40
2019-04-30T09:19:13.172Z,13.37
2019-04-30T09:20:12.952Z,13.37
2019-04-30T09:21:12.940Z,13.45
2019-04-30T09:22:15.223Z,13.44
2019-04-30T09:23:12.751Z,13.40
2019-04-30T09:24:12.641Z,13.43
2019-04-30T09:25:12.701Z,13.38
2019-04-30T09:26:12.495Z,13.40
2019-04-30T09:27:12.510Z,13.43
2019-04-30T09:28:12.330Z,13.59
2019-04-30T09:29:12.322Z,13.48
2019-04-30T09:30:12.177Z,13.48
2019-04-30T09:31:12.187Z,13.44
2019-04-30T09:32:12.019Z,13.47
2019-04-30T09:33:12.038Z,13.61
2019-04-30T09:34:17.476Z,13.61
2019-04-30T09:35:11.806Z,13.71
2019-04-30T09:36:11.709Z,13.65
2019-04-30T09:37:11.658Z,13.68
2019-04-30T09:38:11.552Z,13.55
2019-04-30T09:39:11.569Z,13.65
2019-04-30T09:40:17.930Z,13.56
2019-04-30T09:41:11.480Z,13.59
2019-04-30T09:42:11.248Z,13.70
2019-04-30T09:43:11.285Z,13.81
2019-04-30T09:44:11.095Z,13.95
2019-04-30T09:45:11.098Z,13.87
2019-04-30T09:46:19.137Z,13.87
2019-04-30T09:47:10.960Z,13.77
2019-04-30T09:48:10.782Z,13.77
2019-04-30T09:49:10.816Z,13.81
2019-04-30T09:50:10.629Z,13.78
2019-04-30T09:51:11.244Z,13.76
2019-04-30T09:52:10.656Z,13.74
2019-04-30T09:53:10.916Z,13.74
2019-04-30T09:54:12.708Z,13.74
2019-04-30T09:55:10.500Z,13.84
2019-04-30T09:56:10.162Z,13.92
2019-04-30T09:57:11.480Z,14.13
2019-04-30T09:58:17.325Z,14.14
2019-04-30T09:59:09.929Z,14.27
2019-04-30T10:00:09.976Z,14.27
2019-04-30T10:01:09.787Z,14.41
2019-04-30T10:02:09.788Z,14.44
2019-04-30T10:03:10.833Z,14.27
2019-04-30T10:04:10.769Z,14.17
2019-04-30T10:05:10.020Z,14.09
2019-04-30T10:06:09.391Z,13.99
2019-04-30T10:07:09.677Z,14.01
2019-04-30T10:08:09.317Z,13.99
2019-04-30T10:09:09.708Z,13.99
2019-04-30T10:10:11.257Z,14.19
2019-04-30T10:11:09.716Z,14.36
2019-04-30T10:12:09.693Z,14.56
2019-04-30T10:13:08.852Z,14.65
2019-04-30T10:14:08.956Z,14.69
2019-04-30T10:15:09.119Z,14.69
2019-04-30T10:16:09.747Z,14.61
2019-04-30T10:17:09.535Z,14.60
2019-04-30T10:18:08.473Z,14.47
2019-04-30T10:19:10.106Z,14.35
2019-04-30T10:20:08.418Z,14.32
2019-04-30T10:21:09.094Z,14.34
2019-04-30T10:22:08.990Z,14.28
2019-04-30T10:23:09.512Z,14.17
2019-04-30T10:24:14.766Z,14.21
2019-04-30T10:25:09.314Z,14.10
2019-04-30T10:26:08.003Z,14.17
2019-04-30T10:27:13.012Z,14.19
2019-04-30T10:28:09.788Z,14.14
2019-04-30T10:29:07.724Z,14.14
2019-04-30T10:30:09.380Z,14.09
2019-04-30T10:31:07.475Z,14.17
2019-04-30T10:32:08.802Z,14.32
2019-04-30T10:33:07.316Z,14.41
2019-04-30T10:34:07.239Z,14.35
2019-04-30T10:35:07.255Z,14.36
2019-04-30T10:36:07.082Z,14.34
2019-04-30T10:37:08.850Z,14.38
2019-04-30T10:38:07.002Z,14.35
2019-04-30T10:39:06.872Z,14.46
2019-04-30T10:40:06.792Z,14.41
2019-04-30T10:41:08.674Z,14.52
2019-04-30T10:42:06.623Z,14.60
2019-04-30T10:43:08.665Z,14.65
2019-04-30T10:44:06.593Z,14.87
2019-04-30T10:45:06.402Z,14.88
2019-04-30T10:46:06.314Z,14.93
2019-04-30T10:47:06.419Z,15.15
2019-04-30T10:48:06.158Z,15.24
2019-04-30T10:49:06.103Z,15.42
2019-04-30T10:50:06.131Z,15.51
2019-04-30T10:51:05.939Z,15.38
2019-04-30T10:52:05.855Z,15.41
2019-04-30T10:53:05.939Z,15.35
2019-04-30T10:54:05.703Z,15.27
2019-04-30T10:55:05.656Z,15.27
2019-04-30T10:56:05.661Z,15.39
2019-04-30T10:57:05.480Z,15.39
2019-04-30T10:58:05.399Z,15.27
2019-04-30T10:59:05.469Z,15.28
2019-04-30T11:00:07.754Z,15.18
2019-04-30T11:01:05.168Z,15.15
2019-04-30T11:02:05.187Z,15.15
2019-04-30T11:03:16.225Z,15.10
2019-04-30T11:04:04.943Z,14.98
2019-04-30T11:05:04.996Z,14.91
2019-04-30T11:06:04.942Z,14.90
2019-04-30T11:07:04.755Z,14.94
2019-04-30T11:08:04.810Z,14.93
2019-04-30T11:09:04.563Z,14.88
2019-04-30T11:10:04.479Z,14.95
2019-04-30T11:11:04.524Z,15.03
2019-04-30T11:12:04.330Z,15.09
2019-04-30T11:13:04.248Z,15.08
2019-04-30T11:14:04.340Z,15.31
2019-04-30T11:15:04.099Z,15.46
2019-04-30T11:16:12.538Z,15.55
2019-04-30T11:17:04.219Z,15.76
2019-04-30T11:18:04.061Z,15.78
2019-04-30T11:19:04.000Z,16.03
2019-04-30T11:20:03.888Z,16.08
2019-04-30T11:21:03.942Z,16.16
2019-04-30T11:22:03.754Z,16.16
2019-04-30T11:23:13.883Z,16.16
2019-04-30T11:24:03.498Z,16.10
2019-04-30T11:25:03.688Z,16.15
2019-04-30T11:26:03.824Z,16.07
2019-04-30T11:27:03.808Z,16.03
2019-04-30T11:28:03.589Z,15.99
2019-04-30T11:29:03.460Z,15.89
2019-04-30T11:30:04.096Z,15.88
2019-04-30T11:31:03.021Z,15.79
2019-04-30T11:32:03.143Z,15.73
2019-04-30T11:33:02.920Z,15.76
2019-04-30T11:34:02.650Z,15.64
2019-04-30T11:35:02.578Z,15.57
2019-04-30T11:36:05.011Z,15.53
2019-04-30T11:37:02.426Z,15.59
2019-04-30T11:38:02.457Z,15.59
2019-04-30T11:39:02.277Z,15.51
2019-04-30T11:40:02.199Z,15.52
2019-04-30T11:41:02.279Z,15.45
2019-04-30T11:42:02.046Z,15.63
2019-04-30T11:43:01.974Z,15.59
2019-04-30T11:44:01.988Z,15.48
2019-04-30T11:45:01.817Z,15.55
2019-04-30T11:46:01.741Z,15.53
2019-04-30T11:47:01.811Z,15.63
2019-04-30T11:48:01.590Z,15.70
2019-04-30T11:49:01.511Z,15.64
2019-04-30T11:50:01.639Z,15.63
2019-04-30T11:51:01.362Z,15.66
2019-04-30T11:52:01.291Z,15.57
2019-04-30T11:53:19.713Z,15.55
2019-04-30T11:54:01.241Z,15.59
2019-04-30T11:55:01.246Z,15.63
2019-04-30T11:56:00.995Z,15.55
2019-04-30T11:57:01.061Z,15.59
2019-04-30T11:58:00.957Z,15.53
2019-04-30T11:59:00.760Z,15.48
2019-04-30T12:00:00.872Z,15.34
2019-04-30T12:01:00.609Z,15.26
2019-04-30T12:02:00.679Z,15.23
2019-04-30T12:03:00.450Z,15.28
2019-04-30T12:04:00.384Z,15.38
2019-04-30T12:05:00.392Z,15.35
2019-04-30T12:06:00.222Z,15.27
2019-04-30T12:07:00.147Z,15.30
2019-04-30T12:08:00.212Z,15.24
2019-04-30T12:08:59.998Z,15.31
2019-04-30T12:09:59.916Z,15.31
2019-04-30T12:10:59.840Z,15.39
2019-04-30T12:11:59.852Z,15.42
2019-04-30T12:12:59.688Z,15.43
2019-04-30T12:13:59.738Z,15.57
2019-04-30T12:15:02.522Z,15.76
2019-04-30T12:15:59.465Z,15.83
2019-04-30T12:16:59.554Z,15.86
2019-04-30T12:17:59.311Z,15.88
2019-04-30T12:19:00.693Z,15.97
2019-04-30T12:19:59.266Z,15.99
2019-04-30T12:20:59.086Z,16.08
2019-04-30T12:21:59.006Z,16.07
2019-04-30T12:22:59.223Z,16.08
2019-04-30T12:23:58.850Z,16.08
2019-04-30T12:25:04.869Z,16.22
2019-04-30T12:26:02.377Z,16.22
2019-04-30T12:26:58.629Z,16.26
2019-04-30T12:27:59.594Z,16.25
2019-04-30T12:28:58.620Z,16.33
2019-04-30T12:29:59.453Z,16.40
2019-04-30T12:30:58.866Z,16.44
2019-04-30T12:31:58.433Z,16.34
2019-04-30T12:32:59.081Z,16.41
2019-04-30T12:33:58.100Z,16.38
2019-04-30T12:34:58.021Z,16.57
2019-04-30T12:35:59.639Z,16.82
2019-04-30T12:36:59.642Z,16.85
2019-04-30T12:37:58.855Z,16.85
2019-04-30T12:38:57.720Z,16.80
2019-04-30T12:39:59.371Z,16.92
2019-04-30T12:40:57.566Z,16.98
2019-04-30T12:41:59.249Z,17.08
2019-04-30T12:42:59.812Z,17.14
2019-04-30T12:43:57.488Z,17.02
2019-04-30T12:44:57.274Z,17.00
2019-04-30T12:46:03.427Z,16.90
2019-04-30T12:46:58.626Z,16.84
2019-04-30T12:47:57.122Z,16.84
2019-04-30T12:48:56.966Z,16.88
2019-04-30T12:49:57.019Z,16.67
2019-04-30T12:50:58.943Z,16.66
2019-04-30T12:51:58.644Z,16.66
2019-04-30T12:52:56.661Z,16.74
2019-04-30T12:53:56.741Z,16.65
2019-04-30T12:54:56.509Z,16.57
2019-04-30T12:55:56.547Z,16.65
2019-04-30T12:56:56.362Z,16.60
2019-04-30T12:57:59.632Z,16.66
2019-04-30T12:58:56.209Z,16.60
2019-04-30T12:59:56.269Z,16.57
2019-04-30T13:00:56.064Z,16.45
2019-04-30T13:01:56.179Z,16.40